createdAt,value
2023-01-27T00:00:08.381Z,5.07
2023-01-27T00:02:17.963Z,4.93
2023-01-27T00:03:21.363Z,4.95
2023-01-27T00:04:23.741Z,5.93
2023-01-27T00:05:26.529Z,5.10
2023-01-27T00:06:28.871Z,5.22
2023-01-27T00:07:31.241Z,4.50
2023-01-27T00:08:33.946Z,4.70
2023-01-27T00:09:36.286Z,5.75
2023-01-27T00:10:38.577Z,4.93
2023-01-27T00:11:59.797Z,4.88
2023-01-27T00:13:20.944Z,5.30
2023-01-27T00:14:23.619Z,4.93
2023-01-27T00:15:26.399Z,4.55
2023-01-27T00:16:28.710Z,5.38
2023-01-27T00:17:31.014Z,5.05
2023-01-27T00:18:33.278Z,4.60
2023-01-27T00:19:35.542Z,4.95
2023-01-27T00:20:56.194Z,4.90
2023-01-27T00:22:17.386Z,4.57
2023-01-27T00:23:40.265Z,4.80
2023-01-27T00:24:43.402Z,5.00
2023-01-27T00:25:50.173Z,4.70
2023-01-27T00:26:52.498Z,5.13
2023-01-27T00:27:54.789Z,4.97
2023-01-27T00:28:57.175Z,4.85
2023-01-27T00:29:59.492Z,5.75
2023-01-27T00:31:03.783Z,5.35
2023-01-27T00:32:25.237Z,4.82
2023-01-27T00:33:28.057Z,5.10
2023-01-27T00:34:30.306Z,4.57
2023-01-27T00:35:33.265Z,4.85
2023-01-27T00:36:37.525Z,4.70
2023-01-27T00:37:39.897Z,4.85
2023-01-27T00:38:42.346Z,4.70
2023-01-27T00:39:44.707Z,5.13
2023-01-27T00:41:06.961Z,5.20
2023-01-27T00:42:10.098Z,4.88
2023-01-27T00:43:12.397Z,4.50
2023-01-27T00:44:16.187Z,5.00
2023-01-27T00:45:37.311Z,4.03
2023-01-27T00:46:44.558Z,5.38
2023-01-27T00:47:49.800Z,4.60
2023-01-27T00:48:52.523Z,4.82
2023-01-27T00:49:54.875Z,4.85
2023-01-27T00:50:57.301Z,5.60
2023-01-27T00:51:59.639Z,4.68
2023-01-27T00:53:02.261Z,5.00
2023-01-27T00:54:05.287Z,5.20
2023-01-27T00:55:08.316Z,5.45
2023-01-27T00:56:10.801Z,5.00
2023-01-27T00:57:13.181Z,4.72
2023-01-27T00:58:15.671Z,4.53
2023-01-27T00:59:18.551Z,5.90
2023-01-27T01:00:20.950Z,4.82
2023-01-27T01:01:23.534Z,4.60
2023-01-27T01:02:26.009Z,4.80
2023-01-27T01:03:32.253Z,4.82
2023-01-27T01:04:34.604Z,14.85
2023-01-27T01:05:37.051Z,9.90
2023-01-27T01:06:39.402Z,8.65
2023-01-27T01:07:41.698Z,8.38
2023-01-27T01:08:44.802Z,7.13
2023-01-27T01:09:47.155Z,6.10
2023-01-27T01:10:49.484Z,6.38
2023-01-27T01:11:51.828Z,6.38
2023-01-27T01:12:54.566Z,5.90
2023-01-27T01:13:57.013Z,6.03
2023-01-27T01:14:59.526Z,6.18
2023-01-27T01:16:12.904Z,6.05
2023-01-27T01:17:15.209Z,5.55
2023-01-27T01:18:17.514Z,5.60
2023-01-27T01:19:19.891Z,6.15
2023-01-27T01:20:22.446Z,5.20
2023-01-27T01:21:24.878Z,5.60
2023-01-27T01:22:27.193Z,5.65
2023-01-27T01:23:29.612Z,5.45
2023-01-27T01:24:32.280Z,5.63
2023-01-27T01:25:35.443Z,5.57
2023-01-27T01:26:37.981Z,5.43
2023-01-27T01:27:44.862Z,5.45
2023-01-27T01:28:47.655Z,5.03
2023-01-27T01:29:50.020Z,5.40
2023-01-27T01:30:52.586Z,5.15
2023-01-27T01:31:55.063Z,4.95
2023-01-27T01:32:57.769Z,4.93
2023-01-27T01:34:00.185Z,5.05
2023-01-27T01:35:02.566Z,5.57
2023-01-27T01:36:09.572Z,5.63
2023-01-27T01:37:11.998Z,6.40
2023-01-27T01:38:14.371Z,7.03
2023-01-27T01:39:16.741Z,19.13
2023-01-27T01:40:22.233Z,55.92
2023-01-27T01:41:26.676Z,29.70
2023-01-27T01:42:54.912Z,14.60
2023-01-27T01:43:57.247Z,10.68
2023-01-27T01:45:33.680Z,9.88
2023-01-27T01:46:36.128Z,8.40
2023-01-27T01:47:39.173Z,8.07
2023-01-27T01:48:49.835Z,7.95
2023-01-27T01:49:52.292Z,7.40
2023-01-27T01:51:06.222Z,6.35
2023-01-27T01:52:14.525Z,7.05
2023-01-27T01:53:19.270Z,6.60
2023-01-27T01:54:32.187Z,6.43
2023-01-27T01:55:36.824Z,7.00
2023-01-27T01:56:49.646Z,6.15
2023-01-27T01:57:52.336Z,6.35
2023-01-27T01:58:58.368Z,6.10
2023-01-27T02:00:07.079Z,6.30
2023-01-27T02:01:17.884Z,6.25
2023-01-27T02:02:25.183Z,5.90
2023-01-27T02:03:30.133Z,5.63
2023-01-27T02:04:38.813Z,5.60
2023-01-27T02:05:44.771Z,5.78
2023-01-27T02:06:56.335Z,5.60
2023-01-27T02:08:19.891Z,17.23
2023-01-27T02:09:23.413Z,11.07
2023-01-27T02:10:25.820Z,8.25
2023-01-27T02:11:29.034Z,9.40
2023-01-27T02:12:31.484Z,10.10
2023-01-27T02:13:34.706Z,9.05
2023-01-27T02:14:39.934Z,9.90
2023-01-27T02:15:42.238Z,8.35
2023-01-27T02:16:45.028Z,7.80
2023-01-27T02:17:48.531Z,7.65
2023-01-27T02:18:51.321Z,7.65
2023-01-27T02:20:28.572Z,7.63
2023-01-27T02:21:30.942Z,6.40
2023-01-27T02:22:58.340Z,6.38
2023-01-27T02:24:10.668Z,6.68
2023-01-27T02:25:36.728Z,6.60
2023-01-27T02:26:44.044Z,6.07
2023-01-27T02:27:46.663Z,5.40
2023-01-27T02:29:02.285Z,6.65
2023-01-27T02:30:05.359Z,5.55
2023-01-27T02:31:07.975Z,5.72
2023-01-27T02:32:25.529Z,5.68
2023-01-27T02:33:30.694Z,5.90
2023-01-27T02:34:37.872Z,6.00
2023-01-27T02:35:51.678Z,5.68
2023-01-27T02:36:58.586Z,5.93
2023-01-27T02:38:01.467Z,5.60
2023-01-27T02:39:07.410Z,23.45
2023-01-27T02:40:12.176Z,17.73
2023-01-27T02:41:25.890Z,13.85
2023-01-27T02:42:28.385Z,17.55
2023-01-27T02:43:30.874Z,15.52
2023-01-27T02:44:33.487Z,13.27
2023-01-27T02:45:35.794Z,11.63
2023-01-27T02:46:38.537Z,11.88
2023-01-27T02:47:42.875Z,11.95
2023-01-27T02:48:45.454Z,11.50
2023-01-27T02:49:49.448Z,11.77
2023-01-27T02:50:52.464Z,10.93
2023-01-27T02:51:55.000Z,9.95
2023-01-27T02:52:57.783Z,9.38
2023-01-27T02:54:00.334Z,10.45
2023-01-27T02:55:02.783Z,10.45
2023-01-27T02:56:06.309Z,9.15
2023-01-27T02:57:08.636Z,9.15
2023-01-27T02:58:21.158Z,9.57
2023-01-27T02:59:27.469Z,9.23
2023-01-27T03:00:29.847Z,9.90
2023-01-27T03:01:32.785Z,8.82
2023-01-27T03:02:35.920Z,9.07
2023-01-27T03:03:44.204Z,8.60
2023-01-27T03:04:46.696Z,8.30
2023-01-27T03:05:51.481Z,9.20
2023-01-27T03:06:53.872Z,18.83
2023-01-27T03:07:56.198Z,12.73
2023-01-27T03:08:58.523Z,12.38
2023-01-27T03:10:01.080Z,11.90
2023-01-27T03:11:05.575Z,12.38
2023-01-27T03:12:20.110Z,12.55
2023-01-27T03:13:26.340Z,11.60
2023-01-27T03:14:47.287Z,10.77
2023-01-27T03:16:08.818Z,10.35
2023-01-27T03:17:30.291Z,9.65
2023-01-27T03:18:32.842Z,10.05
2023-01-27T03:19:35.293Z,10.07
2023-01-27T03:20:44.206Z,9.82
2023-01-27T03:21:50.844Z,10.32
2023-01-27T03:22:53.282Z,9.98
2023-01-27T03:23:57.852Z,9.52
2023-01-27T03:25:00.189Z,8.85
2023-01-27T03:26:07.435Z,8.75
2023-01-27T03:27:11.763Z,9.70
2023-01-27T03:28:40.087Z,8.63
2023-01-27T03:29:55.827Z,8.98
2023-01-27T03:31:07.704Z,9.65
2023-01-27T03:32:18.539Z,8.60
2023-01-27T03:33:32.594Z,8.30
2023-01-27T03:34:49.648Z,8.60
2023-01-27T03:36:21.119Z,9.60
2023-01-27T03:37:48.584Z,8.52
2023-01-27T03:39:09.616Z,8.15
2023-01-27T03:40:32.015Z,7.82
2023-01-27T03:41:53.159Z,8.20
2023-01-27T03:43:16.570Z,8.07
2023-01-27T03:44:37.462Z,8.40
2023-01-27T03:46:02.527Z,8.07
2023-01-27T03:47:04.899Z,8.27
2023-01-27T03:48:07.387Z,7.60
2023-01-27T03:49:09.650Z,8.15
2023-01-27T03:50:19.185Z,7.85
2023-01-27T03:51:25.955Z,7.75
2023-01-27T03:52:28.548Z,8.80
2023-01-27T03:53:31.033Z,7.90
2023-01-27T03:54:33.326Z,8.18
2023-01-27T03:55:38.025Z,8.88
2023-01-27T03:56:40.297Z,8.52
2023-01-27T03:57:42.583Z,7.88
2023-01-27T03:58:45.080Z,6.80
2023-01-27T03:59:47.456Z,7.30
2023-01-27T04:00:55.152Z,7.90
2023-01-27T04:02:16.766Z,7.78
2023-01-27T04:03:38.524Z,7.28
2023-01-27T04:06:29.104Z,7.10
2023-01-27T04:07:34.066Z,6.93
2023-01-27T04:08:36.410Z,6.57
2023-01-27T04:09:38.872Z,6.85
2023-01-27T04:10:41.128Z,6.63
2023-01-27T04:11:55.292Z,7.15
2023-01-27T04:12:57.631Z,6.55
2023-01-27T04:14:05.281Z,6.88
2023-01-27T04:15:08.591Z,7.63
2023-01-27T04:16:11.109Z,6.95
2023-01-27T04:17:16.204Z,6.90
2023-01-27T04:18:20.239Z,7.13
2023-01-27T04:19:22.900Z,6.93
2023-01-27T04:20:25.304Z,6.70
2023-01-27T04:21:27.621Z,6.72
2023-01-27T04:22:29.965Z,8.90
2023-01-27T04:23:32.374Z,36.40
2023-01-27T04:24:34.735Z,24.55
2023-01-27T04:25:37.047Z,24.15
2023-01-27T04:26:45.062Z,25.33
2023-01-27T04:27:47.348Z,18.27
2023-01-27T04:28:50.299Z,15.43
2023-01-27T04:29:52.784Z,14.40
2023-01-27T04:30:55.229Z,15.60
2023-01-27T04:31:58.272Z,14.07
2023-01-27T04:33:02.532Z,14.38
2023-01-27T04:34:05.287Z,14.07
2023-01-27T04:35:08.075Z,14.38
2023-01-27T04:36:12.587Z,14.40
2023-01-27T04:37:15.012Z,13.02
2023-01-27T04:38:17.482Z,13.40
2023-01-27T04:39:20.254Z,12.85
2023-01-27T04:40:22.533Z,12.55
2023-01-27T04:41:24.930Z,12.45
2023-01-27T04:42:27.263Z,11.90
2023-01-27T04:43:30.026Z,11.73
2023-01-27T04:44:32.429Z,11.48
2023-01-27T04:45:34.791Z,11.10
2023-01-27T04:46:38.029Z,11.40
2023-01-27T04:47:40.317Z,10.95
2023-01-27T04:48:42.678Z,12.32
2023-01-27T04:49:44.958Z,11.88
2023-01-27T04:50:47.314Z,11.80
2023-01-27T04:51:50.203Z,11.75
2023-01-27T04:52:52.615Z,11.43
2023-01-27T04:53:55.307Z,11.15
2023-01-27T04:54:57.632Z,10.23
2023-01-27T04:56:15.040Z,10.73
2023-01-27T04:57:17.385Z,9.98
2023-01-27T04:58:19.769Z,10.57
2023-01-27T04:59:22.311Z,10.85
2023-01-27T05:00:24.958Z,10.50
2023-01-27T05:01:27.999Z,9.93
2023-01-27T05:02:30.321Z,9.20
2023-01-27T05:03:32.684Z,9.68
2023-01-27T05:04:35.228Z,9.30
2023-01-27T05:05:38.329Z,11.05
2023-01-27T05:06:40.622Z,9.73
2023-01-27T05:07:42.986Z,9.82
2023-01-27T05:08:45.412Z,10.75
2023-01-27T05:09:47.819Z,10.23
2023-01-27T05:10:52.471Z,8.95
2023-01-27T05:11:54.876Z,8.65
2023-01-27T05:12:57.242Z,9.32
2023-01-27T05:13:59.612Z,12.63
2023-01-27T05:15:01.949Z,42.50
2023-01-27T05:16:10.595Z,30.55
2023-01-27T05:17:13.052Z,73.97
2023-01-27T05:18:15.423Z,46.38
2023-01-27T05:19:17.793Z,46.30
2023-01-27T05:20:20.154Z,35.85
2023-01-27T05:21:24.828Z,27.25
2023-01-27T05:22:27.104Z,25.83
2023-01-27T05:23:35.602Z,24.10
2023-01-27T05:24:41.185Z,21.60
2023-01-27T05:25:46.408Z,20.92
2023-01-27T05:26:48.779Z,20.10
2023-01-27T05:27:53.892Z,18.83
2023-01-27T05:28:59.599Z,19.05
2023-01-27T05:30:02.083Z,18.35
2023-01-27T05:31:08.719Z,18.15
2023-01-27T05:32:11.074Z,17.50
2023-01-27T05:33:13.411Z,16.35
2023-01-27T05:34:16.757Z,16.98
2023-01-27T05:35:19.080Z,16.33
2023-01-27T05:36:23.550Z,16.65
2023-01-27T05:37:26.507Z,16.27
2023-01-27T05:38:29.476Z,15.63
2023-01-27T05:39:31.816Z,16.25
2023-01-27T05:40:34.240Z,15.90
2023-01-27T05:41:36.747Z,14.57
2023-01-27T05:42:39.120Z,15.60
2023-01-27T05:43:43.673Z,15.77
2023-01-27T05:44:46.097Z,15.30
2023-01-27T05:45:48.457Z,13.95
2023-01-27T05:46:50.860Z,15.27
2023-01-27T05:47:53.224Z,15.27
2023-01-27T05:48:58.681Z,14.32
2023-01-27T05:50:00.951Z,15.60
2023-01-27T05:51:04.594Z,14.07
2023-01-27T05:52:06.914Z,14.85
2023-01-27T05:53:09.212Z,13.95
2023-01-27T05:54:11.578Z,14.23
2023-01-27T05:55:14.261Z,14.35
2023-01-27T05:56:18.457Z,14.68
2023-01-27T05:57:20.797Z,14.65
2023-01-27T05:58:23.946Z,14.90
2023-01-27T05:59:26.339Z,14.68
2023-01-27T06:00:28.680Z,13.35
2023-01-27T06:01:33.018Z,14.98
2023-01-27T06:02:35.437Z,14.43
2023-01-27T06:03:38.676Z,14.50
2023-01-27T06:04:41.111Z,13.73
2023-01-27T06:05:54.514Z,13.68
2023-01-27T06:06:56.801Z,13.18
2023-01-27T06:07:59.238Z,13.50
2023-01-27T06:09:02.198Z,13.40
2023-01-27T06:10:05.622Z,13.00
2023-01-27T06:11:08.238Z,13.02
2023-01-27T06:12:10.567Z,13.00
2023-01-27T06:13:13.128Z,13.02
2023-01-27T06:14:15.597Z,12.32
2023-01-27T06:15:17.898Z,12.60
2023-01-27T06:16:21.743Z,12.40
2023-01-27T06:17:24.100Z,11.55
2023-01-27T06:18:26.441Z,12.88
2023-01-27T06:19:28.763Z,14.38
2023-01-27T06:20:31.047Z,12.40
2023-01-27T06:21:33.318Z,17.85
2023-01-27T06:22:35.655Z,17.75
2023-01-27T06:23:38.503Z,15.02
2023-01-27T06:24:40.889Z,13.95
2023-01-27T06:25:48.033Z,13.70
2023-01-27T06:26:50.278Z,12.45
2023-01-27T06:27:56.524Z,11.52
2023-01-27T06:28:58.952Z,12.63
2023-01-27T06:30:01.283Z,12.80
2023-01-27T06:31:06.591Z,12.25
2023-01-27T06:32:08.991Z,11.63
2023-01-27T06:33:13.817Z,11.60
2023-01-27T06:34:17.091Z,12.30
2023-01-27T06:35:19.539Z,12.05
2023-01-27T06:36:22.619Z,12.27
2023-01-27T06:37:24.999Z,12.15
2023-01-27T06:38:27.345Z,11.48
2023-01-27T06:39:29.629Z,11.80
2023-01-27T06:40:33.096Z,12.48
2023-01-27T06:41:35.513Z,11.50
2023-01-27T06:42:38.038Z,11.07
2023-01-27T06:43:40.382Z,11.15
2023-01-27T06:44:42.726Z,11.13
2023-01-27T06:45:45.111Z,11.10
2023-01-27T06:46:47.421Z,10.15
2023-01-27T06:48:00.406Z,11.77
2023-01-27T06:49:02.716Z,11.20
2023-01-27T06:50:05.561Z,10.68
2023-01-27T06:51:07.910Z,11.68
2023-01-27T06:52:10.310Z,10.80
2023-01-27T06:53:12.843Z,16.35
2023-01-27T06:54:15.169Z,13.82
2023-01-27T06:55:19.073Z,15.32
2023-01-27T06:56:21.423Z,12.98
2023-01-27T06:57:23.827Z,11.68
2023-01-27T06:58:26.768Z,18.92
2023-01-27T06:59:29.661Z,16.05
2023-01-27T07:00:31.983Z,14.73
2023-01-27T07:01:35.175Z,13.23
2023-01-27T07:02:37.699Z,12.50
2023-01-27T07:03:39.994Z,12.43
2023-01-27T07:04:42.280Z,12.05
2023-01-27T07:05:44.664Z,12.07
2023-01-27T07:06:47.073Z,10.95
2023-01-27T07:07:49.384Z,10.82
2023-01-27T07:08:53.544Z,10.93
2023-01-27T07:09:56.991Z,11.40
2023-01-27T07:11:03.455Z,12.50
2023-01-27T07:12:05.960Z,11.25
2023-01-27T07:13:10.314Z,11.00
2023-01-27T07:14:12.825Z,10.80
2023-01-27T07:15:15.376Z,10.45
2023-01-27T07:16:17.778Z,11.02
2023-01-27T07:17:20.089Z,10.57
2023-01-27T07:18:23.008Z,10.07
2023-01-27T07:19:25.374Z,10.73
2023-01-27T07:20:28.754Z,10.40
2023-01-27T07:21:31.252Z,10.07
2023-01-27T07:22:33.805Z,10.73
2023-01-27T07:23:36.196Z,10.63
2023-01-27T07:24:38.698Z,11.00
2023-01-27T07:25:41.242Z,9.60
2023-01-27T07:26:45.102Z,10.18
2023-01-27T07:27:47.450Z,11.32
2023-01-27T07:28:49.826Z,10.70
2023-01-27T07:29:52.419Z,11.73
2023-01-27T07:30:54.879Z,10.60
2023-01-27T07:31:57.231Z,10.57
2023-01-27T07:33:13.848Z,10.77
2023-01-27T07:34:16.218Z,10.38
2023-01-27T07:35:18.617Z,10.82
2023-01-27T07:36:20.922Z,10.23
2023-01-27T07:37:23.372Z,10.00
2023-01-27T07:38:25.749Z,9.43
2023-01-27T07:39:28.078Z,9.90
2023-01-27T07:40:30.511Z,10.70
2023-01-27T07:41:33.372Z,9.52
2023-01-27T07:42:37.692Z,9.10
2023-01-27T07:43:40.165Z,10.07
2023-01-27T07:44:43.877Z,10.65
2023-01-27T07:45:49.084Z,9.38
2023-01-27T07:46:51.705Z,9.20
2023-01-27T07:47:54.367Z,8.60
2023-01-27T07:48:57.051Z,8.00
2023-01-27T07:49:59.746Z,7.93
2023-01-27T07:51:02.452Z,8.05
2023-01-27T07:52:05.100Z,8.35
2023-01-27T07:53:07.707Z,8.05
2023-01-27T07:54:10.318Z,8.35
2023-01-27T07:55:13.214Z,8.80
2023-01-27T07:56:15.944Z,8.63
2023-01-27T07:57:18.695Z,9.20
2023-01-27T07:58:21.046Z,28.75
2023-01-27T07:59:23.377Z,33.85
2023-01-27T08:00:25.984Z,17.17
2023-01-27T08:01:28.409Z,27.95
2023-01-27T08:02:31.583Z,25.15
2023-01-27T08:03:34.850Z,33.35
2023-01-27T08:04:47.212Z,30.45
2023-01-27T08:05:54.633Z,27.52
2023-01-27T08:06:56.999Z,27.17
2023-01-27T08:08:03.696Z,24.52
2023-01-27T08:09:06.562Z,22.63
2023-01-27T08:10:10.639Z,19.52
2023-01-27T08:11:15.192Z,17.75
2023-01-27T08:12:17.912Z,15.65
2023-01-27T08:13:20.704Z,14.75
2023-01-27T08:14:23.448Z,15.18
2023-01-27T08:15:26.232Z,14.70
2023-01-27T08:16:29.411Z,15.50
2023-01-27T08:17:31.848Z,14.25
2023-01-27T08:18:34.637Z,13.93
2023-01-27T08:19:37.296Z,13.48
2023-01-27T08:20:39.753Z,13.68
2023-01-27T08:21:42.318Z,12.88
2023-01-27T08:22:44.792Z,13.48
2023-01-27T08:23:47.313Z,12.70
2023-01-27T08:24:49.986Z,12.38
2023-01-27T08:26:03.668Z,13.02
2023-01-27T08:27:08.211Z,11.43
2023-01-27T08:28:10.848Z,13.85
2023-01-27T08:29:13.281Z,12.18
2023-01-27T08:30:16.084Z,11.60
2023-01-27T08:31:19.246Z,12.82
2023-01-27T08:32:21.725Z,13.55
2023-01-27T08:33:24.480Z,11.13
2023-01-27T08:34:26.881Z,12.50
2023-01-27T08:35:29.342Z,13.00
2023-01-27T08:36:31.755Z,12.70
2023-01-27T08:37:34.171Z,11.90
2023-01-27T08:38:37.748Z,11.75
2023-01-27T08:39:40.106Z,12.73
2023-01-27T08:40:43.055Z,12.30
2023-01-27T08:41:45.476Z,11.30
2023-01-27T08:42:50.684Z,11.50
2023-01-27T08:43:55.234Z,11.20
2023-01-27T08:44:58.163Z,10.90
2023-01-27T08:46:00.920Z,12.50
2023-01-27T08:47:03.508Z,11.95
2023-01-27T08:48:06.790Z,11.50
2023-01-27T08:49:09.402Z,11.70
2023-01-27T08:50:12.591Z,10.88
2023-01-27T08:51:15.398Z,11.10
2023-01-27T08:52:17.863Z,10.63
2023-01-27T08:53:21.946Z,11.68
2023-01-27T08:54:24.318Z,10.82
2023-01-27T08:55:31.352Z,10.75
2023-01-27T08:56:34.018Z,9.82
2023-01-27T08:57:37.294Z,10.65
2023-01-27T08:58:39.839Z,9.75
2023-01-27T08:59:42.402Z,8.30
2023-01-27T09:00:45.216Z,8.57
2023-01-27T09:01:47.659Z,8.77
2023-01-27T09:02:53.121Z,6.47
2023-01-27T09:03:55.589Z,6.43
2023-01-27T09:04:58.017Z,6.35
2023-01-27T09:06:00.811Z,5.65
2023-01-27T09:07:03.283Z,6.88
2023-01-27T09:08:06.377Z,11.45
2023-01-27T09:09:11.256Z,9.63
2023-01-27T09:10:15.707Z,10.75
2023-01-27T09:11:18.319Z,10.20
2023-01-27T09:12:20.776Z,54.30
2023-01-27T09:13:23.319Z,58.10
2023-01-27T09:14:25.698Z,34.60
2023-01-27T09:15:28.076Z,34.95
2023-01-27T09:16:30.751Z,39.58
2023-01-27T09:17:33.250Z,40.60
2023-01-27T09:18:36.064Z,43.78
2023-01-27T09:19:38.579Z,46.25
2023-01-27T09:20:40.906Z,51.53
2023-01-27T09:21:43.297Z,46.22
2023-01-27T09:22:45.713Z,39.65
2023-01-27T09:23:51.017Z,33.65
2023-01-27T09:24:53.398Z,31.13
2023-01-27T09:25:55.791Z,31.33
2023-01-27T09:27:00.831Z,37.47
2023-01-27T09:28:03.506Z,35.90
2023-01-27T09:29:06.543Z,38.92
2023-01-27T09:30:11.908Z,46.53
2023-01-27T09:31:15.122Z,41.50
2023-01-27T09:32:17.833Z,37.50
2023-01-27T09:33:20.683Z,39.63
2023-01-27T09:34:23.324Z,40.97
2023-01-27T09:35:30.403Z,41.83
2023-01-27T09:36:40.752Z,45.97
2023-01-27T09:37:56.469Z,44.42
2023-01-27T09:39:02.971Z,40.58
2023-01-27T09:40:31.036Z,39.58
2023-01-27T09:42:19.332Z,39.75
2023-01-27T09:43:21.699Z,24.83
2023-01-27T09:44:52.108Z,22.50
2023-01-27T09:46:17.854Z,23.27
2023-01-27T09:47:27.087Z,28.02
2023-01-27T09:48:38.495Z,24.90
2023-01-27T09:50:02.761Z,23.10
2023-01-27T09:51:33.441Z,23.08
2023-01-27T09:52:47.564Z,22.23
2023-01-27T09:54:19.439Z,25.40
2023-01-27T09:56:01.607Z,24.60
2023-01-27T09:59:09.429Z,24.80
2023-01-27T10:00:37.320Z,25.92
2023-01-27T10:01:55.699Z,27.95
2023-01-27T10:03:39.180Z,24.63
2023-01-27T10:04:56.779Z,26.83
2023-01-27T10:06:21.081Z,30.02
2023-01-27T10:07:23.329Z,28.15
2023-01-27T10:08:41.594Z,29.33
2023-01-27T10:10:16.317Z,26.38
2023-01-27T10:11:55.595Z,23.25
2023-01-27T10:13:31.485Z,22.05
2023-01-27T10:14:42.795Z,29.65
2023-01-27T10:17:13.706Z,21.73
2023-01-27T10:18:46.691Z,23.75
2023-01-27T10:20:17.619Z,23.52
2023-01-27T10:21:49.617Z,27.38
2023-01-27T10:23:22.568Z,26.90
2023-01-27T10:24:39.971Z,23.65
2023-01-27T10:25:53.031Z,27.63
2023-01-27T10:27:14.385Z,27.25
2023-01-27T10:28:26.862Z,25.05
2023-01-27T10:29:49.833Z,26.05
2023-01-27T10:31:08.123Z,27.70
2023-01-27T10:32:28.251Z,27.00
2023-01-27T10:33:53.302Z,24.98
2023-01-27T10:35:24.038Z,24.33
2023-01-27T10:36:39.136Z,24.73
2023-01-27T10:37:46.967Z,27.20
2023-01-27T10:39:10.202Z,26.92
2023-01-27T10:40:34.128Z,26.88
2023-01-27T10:41:51.525Z,23.67
2023-01-27T10:43:19.899Z,23.45
2023-01-27T10:44:52.170Z,21.60
2023-01-27T10:46:11.903Z,17.83
2023-01-27T10:47:29.894Z,21.38
2023-01-27T10:48:50.147Z,23.10
2023-01-27T10:50:01.372Z,23.05
2023-01-27T10:51:22.519Z,24.02
2023-01-27T10:52:30.445Z,23.52
2023-01-27T10:53:48.329Z,23.88
2023-01-27T10:55:13.579Z,21.75
2023-01-27T10:56:24.530Z,21.73
2023-01-27T10:57:36.989Z,21.77
2023-01-27T10:58:57.144Z,22.55
2023-01-27T11:00:41.550Z,23.83
2023-01-27T11:01:43.267Z,23.15
2023-01-27T11:03:10.408Z,22.17
2023-01-27T11:04:47.537Z,26.52
2023-01-27T11:05:53.496Z,23.88
2023-01-27T11:06:57.657Z,25.33
2023-01-27T11:08:05.069Z,25.70
2023-01-27T11:09:26.984Z,23.23
2023-01-27T11:10:37.163Z,22.23
2023-01-27T11:11:47.314Z,22.20
2023-01-27T11:12:55.927Z,21.80
2023-01-27T11:14:04.688Z,22.13
2023-01-27T11:15:29.300Z,23.40
2023-01-27T11:16:38.640Z,21.70
2023-01-27T11:18:03.779Z,21.02
2023-01-27T11:19:18.579Z,23.85
2023-01-27T11:20:27.974Z,23.10
2023-01-27T11:21:32.425Z,21.45
2023-01-27T11:23:01.131Z,22.10
2023-01-27T11:24:21.252Z,21.27
2023-01-27T11:25:29.322Z,22.63
2023-01-27T11:26:34.690Z,21.73
2023-01-27T11:27:58.835Z,21.63
2023-01-27T11:29:19.729Z,23.02
2023-01-27T11:30:30.719Z,21.58
2023-01-27T11:31:46.575Z,23.67
2023-01-27T11:33:03.788Z,22.13
2023-01-27T11:34:30.806Z,21.08
2023-01-27T11:35:33.172Z,20.38
2023-01-27T11:36:35.628Z,19.88
2023-01-27T11:37:40.490Z,22.92
2023-01-27T11:38:42.942Z,20.48
2023-01-27T11:39:45.598Z,19.00
2023-01-27T11:40:51.040Z,23.88
2023-01-27T11:41:57.815Z,20.20
2023-01-27T11:43:01.758Z,21.67
2023-01-27T11:44:08.985Z,21.52
2023-01-27T11:45:17.058Z,21.90
2023-01-27T11:46:23.851Z,21.15
2023-01-27T11:47:38.522Z,20.42
2023-01-27T11:48:47.321Z,20.15
2023-01-27T11:49:52.323Z,19.40
2023-01-27T11:50:54.668Z,20.67
2023-01-27T11:52:05.864Z,21.13
2023-01-27T11:54:25.674Z,20.88
2023-01-27T11:55:40.166Z,20.38
2023-01-27T11:56:46.951Z,20.27
2023-01-27T11:57:55.243Z,20.13
2023-01-27T11:59:25.882Z,19.77
2023-01-27T12:00:37.987Z,21.38
2023-01-27T12:02:01.782Z,20.85
2023-01-27T12:03:07.573Z,21.45
2023-01-27T12:04:18.536Z,15.70
2023-01-27T12:05:36.599Z,19.25
2023-01-27T12:06:56.650Z,16.65
2023-01-27T12:08:04.588Z,15.18
2023-01-27T12:09:07.102Z,15.50
2023-01-27T12:10:42.104Z,14.68
2023-01-27T12:11:44.478Z,16.73
2023-01-27T12:12:46.915Z,18.33
2023-01-27T12:13:57.946Z,16.80
2023-01-27T12:15:04.447Z,17.17
2023-01-27T12:16:07.252Z,16.75
2023-01-27T12:17:22.634Z,15.90
2023-01-27T12:18:25.270Z,16.23
2023-01-27T12:19:32.662Z,14.88
2023-01-27T12:20:45.059Z,17.52
2023-01-27T12:21:51.033Z,16.88
2023-01-27T12:22:56.673Z,17.77
2023-01-27T12:24:00.135Z,17.50
2023-01-27T12:25:19.841Z,16.55
2023-01-27T12:26:39.160Z,16.30
2023-01-27T12:27:49.617Z,16.58
2023-01-27T12:28:54.516Z,17.17
2023-01-27T12:30:06.512Z,16.33
2023-01-27T12:31:15.216Z,15.90
2023-01-27T12:32:27.901Z,16.95
2023-01-27T12:33:32.538Z,16.17
2023-01-27T12:34:37.503Z,16.92
2023-01-27T12:35:40.527Z,16.67
2023-01-27T12:36:44.511Z,14.88
2023-01-27T12:37:49.060Z,15.77
2023-01-27T12:38:52.759Z,17.05
2023-01-27T12:40:00.442Z,15.82
2023-01-27T12:41:07.803Z,16.38
2023-01-27T12:42:40.654Z,16.52
2023-01-27T12:43:52.179Z,12.15
2023-01-27T12:44:54.465Z,11.70
2023-01-27T12:46:08.665Z,14.63
2023-01-27T12:47:28.433Z,22.92
2023-01-27T12:48:33.494Z,21.27
2023-01-27T12:49:39.678Z,20.77
2023-01-27T12:50:51.117Z,18.08
2023-01-27T12:53:18.319Z,16.13
2023-01-27T12:54:23.541Z,14.75
2023-01-27T12:55:31.339Z,15.40
2023-01-27T12:56:34.913Z,15.32
2023-01-27T12:57:43.613Z,14.18
2023-01-27T12:58:54.470Z,14.30
2023-01-27T12:59:58.603Z,14.35
2023-01-27T13:01:05.009Z,13.68
2023-01-27T13:02:21.011Z,16.02
2023-01-27T13:03:24.507Z,14.85
2023-01-27T13:04:28.754Z,14.02
2023-01-27T13:05:37.050Z,14.70
2023-01-27T13:06:43.500Z,14.50
2023-01-27T13:07:49.199Z,14.10
2023-01-27T13:08:53.302Z,13.52
2023-01-27T13:10:02.161Z,14.32
2023-01-27T13:11:05.934Z,11.95
2023-01-27T13:12:21.037Z,15.35
2023-01-27T13:13:28.642Z,13.55
2023-01-27T13:14:42.338Z,12.30
2023-01-27T13:15:56.698Z,13.35
2023-01-27T13:16:59.145Z,12.35
2023-01-27T13:18:19.105Z,13.70
2023-01-27T13:19:37.875Z,12.68
2023-01-27T13:20:48.580Z,14.65
2023-01-27T13:21:53.699Z,12.25
2023-01-27T13:23:17.746Z,15.35
2023-01-27T13:24:38.791Z,13.55
2023-01-27T13:25:47.600Z,14.05
2023-01-27T13:26:51.506Z,14.07
2023-01-27T13:27:58.572Z,14.70
2023-01-27T13:29:20.075Z,12.77
2023-01-27T13:30:30.611Z,13.40
2023-01-27T13:31:59.199Z,13.07
2023-01-27T13:33:14.481Z,13.75
2023-01-27T13:34:50.477Z,12.70
2023-01-27T13:36:10.114Z,14.35
2023-01-27T13:37:18.173Z,14.52
2023-01-27T13:38:26.268Z,13.10
2023-01-27T13:39:45.257Z,14.32
2023-01-27T13:40:48.097Z,14.20
2023-01-27T13:42:05.876Z,14.18
2023-01-27T13:43:10.948Z,13.43
2023-01-27T13:44:44.747Z,14.77
2023-01-27T13:46:14.939Z,14.93
2023-01-27T13:48:37.447Z,11.77
2023-01-27T13:49:44.710Z,12.90
2023-01-27T13:51:07.746Z,13.38
2023-01-27T13:52:11.807Z,13.70
2023-01-27T13:53:17.066Z,13.35
2023-01-27T13:54:19.464Z,13.73
2023-01-27T13:55:40.394Z,11.43
2023-01-27T13:56:57.439Z,12.50
2023-01-27T13:58:47.729Z,13.95
2023-01-27T14:00:16.270Z,12.82
2023-01-27T14:01:28.547Z,12.45
2023-01-27T14:02:36.961Z,11.90
2023-01-27T14:03:50.971Z,12.93
2023-01-27T14:05:07.968Z,11.82
2023-01-27T14:06:23.846Z,13.32
2023-01-27T14:07:29.939Z,12.48
2023-01-27T14:08:49.978Z,14.70
2023-01-27T14:10:35.581Z,12.73
2023-01-27T14:11:52.431Z,12.00
2023-01-27T14:13:14.313Z,12.60
2023-01-27T14:14:37.304Z,11.90
2023-01-27T14:15:51.776Z,12.95
2023-01-27T14:17:12.497Z,12.55
2023-01-27T14:18:17.207Z,12.48
2023-01-27T14:19:29.975Z,12.15
2023-01-27T14:20:53.773Z,11.82
2023-01-27T14:22:32.826Z,9.15
2023-01-27T14:24:00.864Z,11.00
2023-01-27T14:25:30.268Z,12.00
2023-01-27T14:27:12.506Z,10.75
2023-01-27T14:28:37.085Z,11.88
2023-01-27T14:30:02.293Z,13.38
2023-01-27T14:31:16.597Z,13.18
2023-01-27T14:32:37.633Z,12.73
2023-01-27T14:33:59.579Z,9.40
2023-01-27T14:35:24.181Z,9.18
2023-01-27T14:36:36.326Z,8.77
2023-01-27T14:38:08.183Z,10.32
2023-01-27T14:39:44.915Z,12.07
2023-01-27T14:41:08.523Z,10.68
2023-01-27T14:42:24.560Z,10.77
2023-01-27T14:43:36.516Z,9.80
2023-01-27T14:44:43.819Z,10.48
2023-01-27T14:46:34.384Z,10.30
2023-01-27T14:47:43.537Z,9.93
2023-01-27T14:49:16.494Z,10.55
2023-01-27T14:50:28.443Z,10.65
2023-01-27T14:51:39.187Z,9.93
2023-01-27T14:52:45.804Z,9.82
2023-01-27T14:54:12.783Z,10.73
2023-01-27T14:55:17.968Z,9.32
2023-01-27T14:57:01.202Z,10.73
2023-01-27T14:58:25.296Z,9.93